Rechercher aéroport 
image banner adimage banner adimage banner ad
image banner ad

SSPF - Fazenda São Rafael Airport

Situé à São José Das Palmeiras, Brazil

ICAO - SSPF, IATA -

Données fournies par Airmate  

Information générale

Coordonnées: S5°4'14" W42°30'35"
Élévation : 738 feet MSL.
Variation magnétique : -21° East
Voir autres Aéroports à Piauí

Données opérationnelles

Special qualification required
Heure actuelle UTC:
Heure actuelle locale:
METAR: SBTE 161500Z 04005KT 9999 BKN030 31/24 Q1010
TAF: TAF SBTE 160840Z 1612/1624 12010KT 9999 BKN025 TX33/1617Z TN26/1624Z BECMG 1616/1618 SCT025 BECMG 1619/1621 35010KT TS SCT025 FEW030CB BECMG 1622/1624 17010KT NSW SCT020 RMK PGS
Voir NOTAMs / SUP AIP / TFR affectant cet aéroport [VIEW]
Fréquences de communication: [VIEW]

Pistes:

Identifiant RWYQFULongueur (ft)Largeur (ft)SurfaceLDA (ft)
17328078GRASS
35328078GRASS

Coordonnées de l'aéroport

Adresse: São José Das Palmeiras Brazil

Vue satellite de SSPF